sensor_id;sensor_type;location;lat;lon;timestamp;temperature;humidity
58261;DHT22;44058;52.898;6.502;2022-08-21T00:01:56;16.60;99.90
58261;DHT22;44058;52.898;6.502;2022-08-21T00:04:22;16.60;99.90
58261;DHT22;44058;52.898;6.502;2022-08-21T00:06:49;16.50;99.90
58261;DHT22;44058;52.898;6.502;2022-08-21T00:09:15;16.50;99.90
58261;DHT22;44058;52.898;6.502;2022-08-21T00:11:41;16.50;99.90
58261;DHT22;44058;52.898;6.502;2022-08-21T00:14:09;16.50;99.90
58261;DHT22;44058;52.898;6.502;2022-08-21T00:16:36;16.50;99.90
58261;DHT22;44058;52.898;6.502;2022-08-21T00:19:02;16.50;99.90
58261;DHT22;44058;52.898;6.502;2022-08-21T00:21:28;16.60;99.90
58261;DHT22;44058;52.898;6.502;2022-08-21T00:23:54;16.60;99.90
58261;DHT22;44058;52.898;6.502;2022-08-21T00:26:20;16.70;99.90
58261;DHT22;44058;52.898;6.502;2022-08-21T00:28:45;16.70;99.90
58261;DHT22;44058;52.898;6.502;2022-08-21T00:31:12;16.70;99.90
58261;DHT22;44058;52.898;6.502;2022-08-21T00:33:38;16.60;99.90
58261;DHT22;44058;52.898;6.502;2022-08-21T00:36:04;16.60;99.90
58261;DHT22;44058;52.898;6.502;2022-08-21T00:38:29;16.60;99.90
58261;DHT22;44058;52.898;6.502;2022-08-21T00:41:00;16.60;99.90
58261;DHT22;44058;52.898;6.502;2022-08-21T00:43:31;16.60;99.90
58261;DHT22;44058;52.898;6.502;2022-08-21T00:45:58;16.50;99.90
58261;DHT22;44058;52.898;6.502;2022-08-21T00:48:25;16.40;99.90
58261;DHT22;44058;52.898;6.502;2022-08-21T00:51:10;16.40;99.90
58261;DHT22;44058;52.898;6.502;2022-08-21T00:53:42;16.40;99.90
58261;DHT22;44058;52.898;6.502;2022-08-21T00:56:10;16.40;99.90
58261;DHT22;44058;52.898;6.502;2022-08-21T00:58:37;16.30;99.90
58261;DHT22;44058;52.898;6.502;2022-08-21T01:01:05;16.30;99.90
58261;DHT22;44058;52.898;6.502;2022-08-21T01:03:32;16.30;99.90
58261;DHT22;44058;52.898;6.502;2022-08-21T01:05:58;16.20;99.90
58261;DHT22;44058;52.898;6.502;2022-08-21T01:08:24;16.20;99.90
58261;DHT22;44058;52.898;6.502;2022-08-21T01:10:50;16.20;99.90
58261;DHT22;44058;52.898;6.502;2022-08-21T01:13:18;16.10;99.90
58261;DHT22;44058;52.898;6.502;2022-08-21T01:15:47;16.10;99.90
58261;DHT22;44058;52.898;6.502;2022-08-21T01:18:15;16.10;99.90
58261;DHT22;44058;52.898;6.502;2022-08-21T01:21:23;16.10;99.90
58261;DHT22;44058;52.898;6.502;2022-08-21T01:23:51;16.10;99.90
58261;DHT22;44058;52.898;6.502;2022-08-21T01:26:22;16.00;99.90
58261;DHT22;44058;52.898;6.502;2022-08-21T01:29:00;16.00;99.90
58261;DHT22;44058;52.898;6.502;2022-08-21T01:31:29;16.00;99.90
58261;DHT22;44058;52.898;6.502;2022-08-21T01:33:56;16.00;99.90
58261;DHT22;44058;52.898;6.502;2022-08-21T01:36:22;15.90;99.90
58261;DHT22;44058;52.898;6.502;2022-08-21T01:38:48;15.90;99.90
58261;DHT22;44058;52.898;6.502;2022-08-21T01:41:15;15.80;99.90
58261;DHT22;44058;52.898;6.502;2022-08-21T01:43:42;15.80;99.90
58261;DHT22;44058;52.898;6.502;2022-08-21T01:46:09;15.60;99.90
58261;DHT22;44058;52.898;6.502;2022-08-21T01:48:35;15.50;99.90
58261;DHT22;44058;52.898;6.502;2022-08-21T01:51:01;15.30;99.90
58261;DHT22;44058;52.898;6.502;2022-08-21T01:53:26;15.20;99.90
58261;DHT22;44058;52.898;6.502;2022-08-21T01:55:52;15.10;99.90
58261;DHT22;44058;52.898;6.502;2022-08-21T01:58:18;15.00;99.90
58261;DHT22;44058;52.898;6.502;2022-08-21T02:00:44;15.00;99.90
58261;DHT22;44058;52.898;6.502;2022-08-21T02:03:09;15.00;99.90
58261;DHT22;44058;52.898;6.502;2022-08-21T02:05:35;14.90;99.90
58261;DHT22;44058;52.898;6.502;2022-08-21T02:08:01;14.90;99.90
58261;DHT22;44058;52.898;6.502;2022-08-21T02:10:30;14.80;99.90
58261;DHT22;44058;52.898;6.502;2022-08-21T02:12:57;14.80;99.90
58261;DHT22;44058;52.898;6.502;2022-08-21T02:15:23;14.70;99.90
58261;DHT22;44058;52.898;6.502;2022-08-21T02:17:52;14.70;99.90
58261;DHT22;44058;52.898;6.502;2022-08-21T02:20:23;14.70;99.90
58261;DHT22;44058;52.898;6.502;2022-08-21T02:22:49;14.60;99.90
58261;DHT22;44058;52.898;6.502;2022-08-21T02:25:15;14.60;99.90
58261;DHT22;44058;52.898;6.502;2022-08-21T02:27:43;14.60;99.90
58261;DHT22;44058;52.898;6.502;2022-08-21T02:30:15;14.50;99.90
58261;DHT22;44058;52.898;6.502;2022-08-21T02:32:42;14.50;99.90
58261;DHT22;44058;52.898;6.502;2022-08-21T02:35:09;14.60;99.90
58261;DHT22;44058;52.898;6.502;2022-08-21T02:37:46;14.70;99.90
58261;DHT22;44058;52.898;6.502;2022-08-21T02:40:13;14.80;99.90
58261;DHT22;44058;52.898;6.502;2022-08-21T02:42:39;14.90;99.90
58261;DHT22;44058;52.898;6.502;2022-08-21T02:45:06;14.90;99.90
58261;DHT22;44058;52.898;6.502;2022-08-21T02:47:32;14.80;99.90
58261;DHT22;44058;52.898;6.502;2022-08-21T02:49:57;14.70;99.90
58261;DHT22;44058;52.898;6.502;2022-08-21T02:52:23;14.70;99.90
58261;DHT22;44058;52.898;6.502;2022-08-21T02:54:50;14.60;99.90
58261;DHT22;44058;52.898;6.502;2022-08-21T02:57:16;14.60;99.90
58261;DHT22;44058;52.898;6.502;2022-08-21T02:59:41;14.50;99.90
58261;DHT22;44058;52.898;6.502;2022-08-21T03:02:07;14.50;99.90
58261;DHT22;44058;52.898;6.502;2022-08-21T03:04:33;14.50;99.90
58261;DHT22;44058;52.898;6.502;2022-08-21T03:06:58;14.50;99.90
58261;DHT22;44058;52.898;6.502;2022-08-21T03:09:25;14.60;99.90
58261;DHT22;44058;52.898;6.502;2022-08-21T03:11:51;14.60;99.90
58261;DHT22;44058;52.898;6.502;2022-08-21T03:14:17;14.60;99.90
58261;DHT22;44058;52.898;6.502;2022-08-21T03:16:44;14.70;99.90
58261;DHT22;44058;52.898;6.502;2022-08-21T03:19:10;14.60;99.90
58261;DHT22;44058;52.898;6.502;2022-08-21T03:21:35;14.50;99.90
58261;DHT22;44058;52.898;6.502;2022-08-21T03:24:01;14.40;99.90
58261;DHT22;44058;52.898;6.502;2022-08-21T03:26:27;14.40;99.90
58261;DHT22;44058;52.898;6.502;2022-08-21T03:28:53;14.40;99.90
58261;DHT22;44058;52.898;6.502;2022-08-21T03:31:20;14.30;99.90
58261;DHT22;44058;52.898;6.502;2022-08-21T03:33:47;14.40;99.90
58261;DHT22;44058;52.898;6.502;2022-08-21T03:36:13;14.40;99.90
58261;DHT22;44058;52.898;6.502;2022-08-21T03:38:39;14.40;99.90
58261;DHT22;44058;52.898;6.502;2022-08-21T03:41:05;14.50;99.90
58261;DHT22;44058;52.898;6.502;2022-08-21T03:43:32;14.50;99.90
58261;DHT22;44058;52.898;6.502;2022-08-21T03:46:03;14.50;99.90
58261;DHT22;44058;52.898;6.502;2022-08-21T03:48:30;14.60;99.90
58261;DHT22;44058;52.898;6.502;2022-08-21T03:50:55;14.70;99.90
58261;DHT22;44058;52.898;6.502;2022-08-21T03:53:22;14.80;99.90
58261;DHT22;44058;52.898;6.502;2022-08-21T03:55:50;14.80;99.90
58261;DHT22;44058;52.898;6.502;2022-08-21T03:58:17;14.80;99.90
58261;DHT22;44058;52.898;6.502;2022-08-21T04:00:45;14.80;99.90
58261;DHT22;44058;52.898;6.502;2022-08-21T04:03:12;14.80;99.90
58261;DHT22;44058;52.898;6.502;2022-08-21T04:05:37;14.70;99.90
58261;DHT22;44058;52.898;6.502;2022-08-21T04:08:05;14.70;99.90
58261;DHT22;44058;52.898;6.502;2022-08-21T04:10:33;14.80;99.90
58261;DHT22;44058;52.898;6.502;2022-08-21T04:13:00;14.80;99.90
58261;DHT22;44058;52.898;6.502;2022-08-21T04:15:26;14.80;99.90
58261;DHT22;44058;52.898;6.502;2022-08-21T04:17:52;14.80;99.90
58261;DHT22;44058;52.898;6.502;2022-08-21T04:20:19;14.90;99.90
58261;DHT22;44058;52.898;6.502;2022-08-21T04:22:47;15.00;99.90
58261;DHT22;44058;52.898;6.502;2022-08-21T04:25:14;14.90;99.90
58261;DHT22;44058;52.898;6.502;2022-08-21T04:27:41;15.00;99.90
58261;DHT22;44058;52.898;6.502;2022-08-21T04:30:07;15.00;99.90
58261;DHT22;44058;52.898;6.502;2022-08-21T04:32:35;15.00;99.90
58261;DHT22;44058;52.898;6.502;2022-08-21T04:35:05;15.00;99.90
58261;DHT22;44058;52.898;6.502;2022-08-21T04:37:31;15.00;99.90
58261;DHT22;44058;52.898;6.502;2022-08-21T04:39:57;15.10;99.90
58261;DHT22;44058;52.898;6.502;2022-08-21T04:42:24;15.00;99.90
58261;DHT22;44058;52.898;6.502;2022-08-21T04:44:51;15.10;99.90
58261;DHT22;44058;52.898;6.502;2022-08-21T04:47:17;15.10;99.90
58261;DHT22;44058;52.898;6.502;2022-08-21T04:49:43;15.10;99.90
58261;DHT22;44058;52.898;6.502;2022-08-21T04:52:09;15.00;99.90
58261;DHT22;44058;52.898;6.502;2022-08-21T04:54:36;14.90;99.90
58261;DHT22;44058;52.898;6.502;2022-08-21T04:57:05;14.90;99.90
58261;DHT22;44058;52.898;6.502;2022-08-21T04:59:41;14.90;99.90
58261;DHT22;44058;52.898;6.502;2022-08-21T05:02:08;14.90;99.90
58261;DHT22;44058;52.898;6.502;2022-08-21T05:04:37;15.00;99.90
58261;DHT22;44058;52.898;6.502;2022-08-21T05:07:09;15.10;99.90
58261;DHT22;44058;52.898;6.502;2022-08-21T05:09:37;15.20;99.90
58261;DHT22;44058;52.898;6.502;2022-08-21T05:12:03;15.20;99.90
58261;DHT22;44058;52.898;6.502;2022-08-21T05:14:29;15.20;99.90
58261;DHT22;44058;52.898;6.502;2022-08-21T05:16:55;15.20;99.90
58261;DHT22;44058;52.898;6.502;2022-08-21T05:19:21;15.30;99.90
58261;DHT22;44058;52.898;6.502;2022-08-21T05:21:47;15.40;99.90
58261;DHT22;44058;52.898;6.502;2022-08-21T05:24:13;15.40;99.90
58261;DHT22;44058;52.898;6.502;2022-08-21T05:26:39;15.50;99.90
58261;DHT22;44058;52.898;6.502;2022-08-21T05:29:05;15.60;99.90
58261;DHT22;44058;52.898;6.502;2022-08-21T05:31:31;15.60;99.90
58261;DHT22;44058;52.898;6.502;2022-08-21T05:33:57;15.70;99.90
58261;DHT22;44058;52.898;6.502;2022-08-21T05:36:24;15.80;99.90
58261;DHT22;44058;52.898;6.502;2022-08-21T05:38:50;15.70;99.90
58261;DHT22;44058;52.898;6.502;2022-08-21T05:41:16;15.80;99.90
58261;DHT22;44058;52.898;6.502;2022-08-21T05:43:42;15.80;99.90
58261;DHT22;44058;52.898;6.502;2022-08-21T05:46:08;15.80;99.90
58261;DHT22;44058;52.898;6.502;2022-08-21T05:48:35;15.90;99.90
58261;DHT22;44058;52.898;6.502;2022-08-21T05:51:09;16.00;99.90
58261;DHT22;44058;52.898;6.502;2022-08-21T05:53:36;16.00;99.90
58261;DHT22;44058;52.898;6.502;2022-08-21T05:56:03;16.10;99.90
58261;DHT22;44058;52.898;6.502;2022-08-21T05:58:31;16.20;99.90
58261;DHT22;44058;52.898;6.502;2022-08-21T06:00:58;16.30;99.90
58261;DHT22;44058;52.898;6.502;2022-08-21T06:03:31;16.40;99.90
58261;DHT22;44058;52.898;6.502;2022-08-21T06:05:57;16.40;99.90
58261;DHT22;44058;52.898;6.502;2022-08-21T06:08:23;16.50;99.90
58261;DHT22;44058;52.898;6.502;2022-08-21T06:10:51;16.60;99.90
58261;DHT22;44058;52.898;6.502;2022-08-21T06:13:18;16.60;99.90
58261;DHT22;44058;52.898;6.502;2022-08-21T06:15:45;16.70;99.90
58261;DHT22;44058;52.898;6.502;2022-08-21T06:18:11;16.70;99.90
58261;DHT22;44058;52.898;6.502;2022-08-21T06:20:38;16.80;99.90
58261;DHT22;44058;52.898;6.502;2022-08-21T06:23:04;16.90;99.90
58261;DHT22;44058;52.898;6.502;2022-08-21T06:25:30;17.00;99.90
58261;DHT22;44058;52.898;6.502;2022-08-21T06:28:09;17.00;99.90
58261;DHT22;44058;52.898;6.502;2022-08-21T06:30:37;17.20;99.90
58261;DHT22;44058;52.898;6.502;2022-08-21T06:33:03;17.20;99.90
58261;DHT22;44058;52.898;6.502;2022-08-21T06:35:29;17.30;99.90
58261;DHT22;44058;52.898;6.502;2022-08-21T06:37:57;17.40;99.90
58261;DHT22;44058;52.898;6.502;2022-08-21T06:40:23;17.40;99.90
58261;DHT22;44058;52.898;6.502;2022-08-21T06:42:49;17.50;99.90
58261;DHT22;44058;52.898;6.502;2022-08-21T06:45:15;17.60;99.90
58261;DHT22;44058;52.898;6.502;2022-08-21T06:47:41;17.60;99.90
58261;DHT22;44058;52.898;6.502;2022-08-21T06:50:07;17.70;99.90
58261;DHT22;44058;52.898;6.502;2022-08-21T06:52:34;17.80;99.90
58261;DHT22;44058;52.898;6.502;2022-08-21T06:55:00;17.90;99.90
58261;DHT22;44058;52.898;6.502;2022-08-21T06:57:26;18.00;99.90
58261;DHT22;44058;52.898;6.502;2022-08-21T06:59:51;18.10;99.90
58261;DHT22;44058;52.898;6.502;2022-08-21T07:02:17;18.20;99.90
58261;DHT22;44058;52.898;6.502;2022-08-21T07:04:43;18.30;99.90
58261;DHT22;44058;52.898;6.502;2022-08-21T07:07:09;18.30;99.90
58261;DHT22;44058;52.898;6.502;2022-08-21T07:09:34;18.40;99.90
58261;DHT22;44058;52.898;6.502;2022-08-21T07:12:01;18.50;99.90
58261;DHT22;44058;52.898;6.502;2022-08-21T07:14:27;18.60;99.90
58261;DHT22;44058;52.898;6.502;2022-08-21T07:16:52;18.70;99.90
58261;DHT22;44058;52.898;6.502;2022-08-21T07:19:18;18.80;99.90
58261;DHT22;44058;52.898;6.502;2022-08-21T07:21:45;18.80;99.90
58261;DHT22;44058;52.898;6.502;2022-08-21T07:24:10;18.90;99.90
58261;DHT22;44058;52.898;6.502;2022-08-21T07:26:36;19.00;99.90
58261;DHT22;44058;52.898;6.502;2022-08-21T07:29:03;19.00;99.90
58261;DHT22;44058;52.898;6.502;2022-08-21T07:31:28;19.00;99.90
58261;DHT22;44058;52.898;6.502;2022-08-21T07:33:55;19.00;99.90
58261;DHT22;44058;52.898;6.502;2022-08-21T07:36:20;19.00;99.90
58261;DHT22;44058;52.898;6.502;2022-08-21T07:38:47;19.10;99.90
58261;DHT22;44058;52.898;6.502;2022-08-21T07:41:19;19.20;99.90
58261;DHT22;44058;52.898;6.502;2022-08-21T07:43:45;19.20;99.90
58261;DHT22;44058;52.898;6.502;2022-08-21T07:46:11;19.30;99.90
58261;DHT22;44058;52.898;6.502;2022-08-21T07:48:37;19.30;99.90
58261;DHT22;44058;52.898;6.502;2022-08-21T07:51:06;19.50;99.90
58261;DHT22;44058;52.898;6.502;2022-08-21T07:53:35;19.50;99.90
58261;DHT22;44058;52.898;6.502;2022-08-21T07:56:01;19.60;99.90
58261;DHT22;44058;52.898;6.502;2022-08-21T07:58:27;19.70;99.90
58261;DHT22;44058;52.898;6.502;2022-08-21T08:00:53;19.70;99.90
58261;DHT22;44058;52.898;6.502;2022-08-21T08:03:18;19.70;99.90
58261;DHT22;44058;52.898;6.502;2022-08-21T08:05:44;19.80;99.90
58261;DHT22;44058;52.898;6.502;2022-08-21T08:08:10;19.90;99.90
58261;DHT22;44058;52.898;6.502;2022-08-21T08:10:37;19.90;99.90
58261;DHT22;44058;52.898;6.502;2022-08-21T08:13:03;20.00;99.90
58261;DHT22;44058;52.898;6.502;2022-08-21T08:15:29;20.10;99.90
58261;DHT22;44058;52.898;6.502;2022-08-21T08:17:56;20.10;99.90
58261;DHT22;44058;52.898;6.502;2022-08-21T08:20:23;20.10;99.90
58261;DHT22;44058;52.898;6.502;2022-08-21T08:22:50;20.10;99.90
58261;DHT22;44058;52.898;6.502;2022-08-21T08:25:18;20.10;99.90
58261;DHT22;44058;52.898;6.502;2022-08-21T08:27:44;20.20;99.90
58261;DHT22;44058;52.898;6.502;2022-08-21T08:30:14;20.20;99.90
58261;DHT22;44058;52.898;6.502;2022-08-21T08:32:40;20.30;99.90
58261;DHT22;44058;52.898;6.502;2022-08-21T08:35:07;20.30;99.90
58261;DHT22;44058;52.898;6.502;2022-08-21T08:37:34;20.40;99.90
58261;DHT22;44058;52.898;6.502;2022-08-21T08:40:04;20.40;99.90
58261;DHT22;44058;52.898;6.502;2022-08-21T08:42:33;20.40;99.90
58261;DHT22;44058;52.898;6.502;2022-08-21T08:47:30;20.50;99.90
58261;DHT22;44058;52.898;6.502;2022-08-21T08:50:18;20.50;99.90
58261;DHT22;44058;52.898;6.502;2022-08-21T08:52:57;20.50;99.90
58261;DHT22;44058;52.898;6.502;2022-08-21T08:55:36;20.60;99.90
58261;DHT22;44058;52.898;6.502;2022-08-21T08:58:03;20.60;99.90
58261;DHT22;44058;52.898;6.502;2022-08-21T09:00:30;20.60;99.90
58261;DHT22;44058;52.898;6.502;2022-08-21T09:02:59;20.60;99.90
58261;DHT22;44058;52.898;6.502;2022-08-21T09:05:32;20.70;99.90
58261;DHT22;44058;52.898;6.502;2022-08-21T09:11:08;20.90;99.90
58261;DHT22;44058;52.898;6.502;2022-08-21T09:19:16;21.10;99.90
58261;DHT22;44058;52.898;6.502;2022-08-21T09:24:31;21.20;99.90
58261;DHT22;44058;52.898;6.502;2022-08-21T09:27:23;21.30;99.90
58261;DHT22;44058;52.898;6.502;2022-08-21T09:29:52;21.30;99.90
58261;DHT22;44058;52.898;6.502;2022-08-21T09:32:23;21.30;99.90
58261;DHT22;44058;52.898;6.502;2022-08-21T09:35:06;21.40;99.90
58261;DHT22;44058;52.898;6.502;2022-08-21T09:37:44;21.50;99.90
58261;DHT22;44058;52.898;6.502;2022-08-21T09:43:17;21.60;99.90
58261;DHT22;44058;52.898;6.502;2022-08-21T09:45:44;21.60;99.90
58261;DHT22;44058;52.898;6.502;2022-08-21T09:48:19;21.70;99.90
58261;DHT22;44058;52.898;6.502;2022-08-21T09:50:47;21.80;99.90
58261;DHT22;44058;52.898;6.502;2022-08-21T09:53:25;22.00;99.90
58261;DHT22;44058;52.898;6.502;2022-08-21T09:55:52;22.00;99.90
58261;DHT22;44058;52.898;6.502;2022-08-21T09:58:39;22.10;99.90
58261;DHT22;44058;52.898;6.502;2022-08-21T10:01:13;22.10;99.90
58261;DHT22;44058;52.898;6.502;2022-08-21T10:03:40;22.30;99.90
58261;DHT22;44058;52.898;6.502;2022-08-21T10:06:08;22.40;99.90
58261;DHT22;44058;52.898;6.502;2022-08-21T10:08:40;22.60;99.90
58261;DHT22;44058;52.898;6.502;2022-08-21T10:11:13;22.50;99.90
58261;DHT22;44058;52.898;6.502;2022-08-21T10:16:52;22.30;99.90
58261;DHT22;44058;52.898;6.502;2022-08-21T10:19:33;22.30;99.90
58261;DHT22;44058;52.898;6.502;2022-08-21T10:22:26;22.40;99.90
58261;DHT22;44058;52.898;6.502;2022-08-21T10:30:29;22.60;99.90
58261;DHT22;44058;52.898;6.502;2022-08-21T10:33:29;22.70;99.90
58261;DHT22;44058;52.898;6.502;2022-08-21T10:38:54;22.90;99.90
58261;DHT22;44058;52.898;6.502;2022-08-21T10:45:05;23.00;99.90
58261;DHT22;44058;52.898;6.502;2022-08-21T10:47:33;23.10;99.90
58261;DHT22;44058;52.898;6.502;2022-08-21T10:50:05;23.20;99.90
58261;DHT22;44058;52.898;6.502;2022-08-21T10:55:08;23.10;99.90
58261;DHT22;44058;52.898;6.502;2022-08-21T10:57:57;23.10;99.90
58261;DHT22;44058;52.898;6.502;2022-08-21T11:00:26;23.10;99.90
58261;DHT22;44058;52.898;6.502;2022-08-21T11:06:00;23.30;99.90
58261;DHT22;44058;52.898;6.502;2022-08-21T11:08:45;23.30;99.90
58261;DHT22;44058;52.898;6.502;2022-08-21T11:11:31;23.40;99.90
58261;DHT22;44058;52.898;6.502;2022-08-21T11:14:03;23.50;99.90
58261;DHT22;44058;52.898;6.502;2022-08-21T11:16:42;23.60;99.90
58261;DHT22;44058;52.898;6.502;2022-08-21T11:19:52;23.60;99.90
58261;DHT22;44058;52.898;6.502;2022-08-21T11:22:24;23.80;99.90
58261;DHT22;44058;52.898;6.502;2022-08-21T11:30:26;24.00;99.90
58261;DHT22;44058;52.898;6.502;2022-08-21T11:35:50;24.00;99.90
58261;DHT22;44058;52.898;6.502;2022-08-21T11:38:37;24.10;99.90
58261;DHT22;44058;52.898;6.502;2022-08-21T11:41:23;24.00;99.90
58261;DHT22;44058;52.898;6.502;2022-08-21T11:46:43;24.10;99.90
58261;DHT22;44058;52.898;6.502;2022-08-21T11:49:31;24.30;99.90
58261;DHT22;44058;52.898;6.502;2022-08-21T11:52:29;24.60;99.90
58261;DHT22;44058;52.898;6.502;2022-08-21T11:55:00;24.50;99.90
58261;DHT22;44058;52.898;6.502;2022-08-21T11:57:39;24.60;99.90
58261;DHT22;44058;52.898;6.502;2022-08-21T12:00:25;24.60;99.90
58261;DHT22;44058;52.898;6.502;2022-08-21T12:02:58;24.60;99.90
58261;DHT22;44058;52.898;6.502;2022-08-21T12:05:29;24.60;99.90
58261;DHT22;44058;52.898;6.502;2022-08-21T12:10:42;24.20;99.90
58261;DHT22;44058;52.898;6.502;2022-08-21T12:13:28;24.00;99.90
58261;DHT22;44058;52.898;6.502;2022-08-21T12:16:10;24.10;99.90
58261;DHT22;44058;52.898;6.502;2022-08-21T12:18:36;24.20;99.90
58261;DHT22;44058;52.898;6.502;2022-08-21T12:21:27;24.30;99.90
58261;DHT22;44058;52.898;6.502;2022-08-21T12:26:34;24.30;99.90
58261;DHT22;44058;52.898;6.502;2022-08-21T12:29:26;24.30;99.90
58261;DHT22;44058;52.898;6.502;2022-08-21T12:31:59;24.20;99.90
58261;DHT22;44058;52.898;6.502;2022-08-21T12:37:51;24.20;99.90
58261;DHT22;44058;52.898;6.502;2022-08-21T12:40:31;24.10;99.90
58261;DHT22;44058;52.898;6.502;2022-08-21T12:42:59;24.00;99.90
58261;DHT22;44058;52.898;6.502;2022-08-21T12:45:42;23.80;99.90
58261;DHT22;44058;52.898;6.502;2022-08-21T12:48:13;23.80;99.90
58261;DHT22;44058;52.898;6.502;2022-08-21T12:50:45;23.60;99.90
58261;DHT22;44058;52.898;6.502;2022-08-21T12:56:12;23.80;99.90
58261;DHT22;44058;52.898;6.502;2022-08-21T12:58:43;24.00;99.90
58261;DHT22;44058;52.898;6.502;2022-08-21T13:01:21;24.10;99.90
58261;DHT22;44058;52.898;6.502;2022-08-21T13:03:51;24.00;99.90
58261;DHT22;44058;52.898;6.502;2022-08-21T13:06:20;24.00;99.90
58261;DHT22;44058;52.898;6.502;2022-08-21T13:08:56;24.00;99.90
58261;DHT22;44058;52.898;6.502;2022-08-21T13:11:23;23.90;99.90
58261;DHT22;44058;52.898;6.502;2022-08-21T13:13:51;23.90;99.90
58261;DHT22;44058;52.898;6.502;2022-08-21T13:16:27;23.80;99.90
58261;DHT22;44058;52.898;6.502;2022-08-21T13:19:05;23.70;99.90
58261;DHT22;44058;52.898;6.502;2022-08-21T13:21:39;23.80;99.90
58261;DHT22;44058;52.898;6.502;2022-08-21T13:24:15;23.80;99.90
58261;DHT22;44058;52.898;6.502;2022-08-21T13:26:41;23.60;99.90
58261;DHT22;44058;52.898;6.502;2022-08-21T13:29:10;23.60;99.90
58261;DHT22;44058;52.898;6.502;2022-08-21T13:31:37;23.60;99.90
58261;DHT22;44058;52.898;6.502;2022-08-21T13:34:05;23.60;99.90
58261;DHT22;44058;52.898;6.502;2022-08-21T13:36:36;23.70;99.90
58261;DHT22;44058;52.898;6.502;2022-08-21T13:39:08;23.90;99.90
58261;DHT22;44058;52.898;6.502;2022-08-21T13:41:38;24.00;99.90
58261;DHT22;44058;52.898;6.502;2022-08-21T13:44:20;24.10;99.90
58261;DHT22;44058;52.898;6.502;2022-08-21T13:46:49;24.10;99.90
58261;DHT22;44058;52.898;6.502;2022-08-21T13:49:17;23.90;99.90
58261;DHT22;44058;52.898;6.502;2022-08-21T13:51:44;23.70;99.90
58261;DHT22;44058;52.898;6.502;2022-08-21T13:54:43;23.50;99.90
58261;DHT22;44058;52.898;6.502;2022-08-21T13:57:18;23.40;99.90
58261;DHT22;44058;52.898;6.502;2022-08-21T13:59:44;23.30;99.90
58261;DHT22;44058;52.898;6.502;2022-08-21T14:02:23;23.30;99.90
58261;DHT22;44058;52.898;6.502;2022-08-21T14:04:56;23.30;99.90
58261;DHT22;44058;52.898;6.502;2022-08-21T14:07:35;23.20;99.90
58261;DHT22;44058;52.898;6.502;2022-08-21T14:10:06;23.10;99.90
58261;DHT22;44058;52.898;6.502;2022-08-21T14:12:40;23.00;99.90
58261;DHT22;44058;52.898;6.502;2022-08-21T14:15:08;22.90;99.90
58261;DHT22;44058;52.898;6.502;2022-08-21T14:17:37;22.90;99.90
58261;DHT22;44058;52.898;6.502;2022-08-21T14:20:05;22.90;99.90
58261;DHT22;44058;52.898;6.502;2022-08-21T14:22:36;23.00;99.90
58261;DHT22;44058;52.898;6.502;2022-08-21T14:27:32;23.00;99.90
58261;DHT22;44058;52.898;6.502;2022-08-21T14:30:11;22.90;99.90
58261;DHT22;44058;52.898;6.502;2022-08-21T14:32:39;22.90;99.90
58261;DHT22;44058;52.898;6.502;2022-08-21T14:35:05;22.80;99.90
58261;DHT22;44058;52.898;6.502;2022-08-21T14:37:31;22.80;99.90
58261;DHT22;44058;52.898;6.502;2022-08-21T14:39:57;22.80;99.90
58261;DHT22;44058;52.898;6.502;2022-08-21T14:42:24;23.00;99.90
58261;DHT22;44058;52.898;6.502;2022-08-21T14:44:50;23.20;99.90
58261;DHT22;44058;52.898;6.502;2022-08-21T14:47:17;23.20;99.90
58261;DHT22;44058;52.898;6.502;2022-08-21T14:49:42;23.30;99.90
58261;DHT22;44058;52.898;6.502;2022-08-21T14:52:08;23.40;99.90
58261;DHT22;44058;52.898;6.502;2022-08-21T14:54:34;23.40;99.90
58261;DHT22;44058;52.898;6.502;2022-08-21T14:57:06;23.40;99.90
58261;DHT22;44058;52.898;6.502;2022-08-21T14:59:35;23.40;99.90
58261;DHT22;44058;52.898;6.502;2022-08-21T15:02:01;23.30;99.90
58261;DHT22;44058;52.898;6.502;2022-08-21T15:04:30;23.30;99.90
58261;DHT22;44058;52.898;6.502;2022-08-21T15:06:56;23.30;99.90
58261;DHT22;44058;52.898;6.502;2022-08-21T15:09:22;23.20;99.90
58261;DHT22;44058;52.898;6.502;2022-08-21T15:11:50;23.10;99.90
58261;DHT22;44058;52.898;6.502;2022-08-21T15:14:22;23.10;99.90
58261;DHT22;44058;52.898;6.502;2022-08-21T15:16:49;23.00;99.90
58261;DHT22;44058;52.898;6.502;2022-08-21T15:19:15;23.00;99.90
58261;DHT22;44058;52.898;6.502;2022-08-21T15:21:41;23.10;99.90
58261;DHT22;44058;52.898;6.502;2022-08-21T15:24:07;23.10;99.90
58261;DHT22;44058;52.898;6.502;2022-08-21T15:26:34;23.00;99.90
58261;DHT22;44058;52.898;6.502;2022-08-21T15:29:00;23.00;99.90
58261;DHT22;44058;52.898;6.502;2022-08-21T15:31:26;23.00;99.90
58261;DHT22;44058;52.898;6.502;2022-08-21T15:33:53;23.00;99.90
58261;DHT22;44058;52.898;6.502;2022-08-21T15:36:18;23.00;99.90
58261;DHT22;44058;52.898;6.502;2022-08-21T15:38:44;23.00;99.90
58261;DHT22;44058;52.898;6.502;2022-08-21T15:41:10;23.10;99.90
58261;DHT22;44058;52.898;6.502;2022-08-21T15:43:46;23.40;99.90
58261;DHT22;44058;52.898;6.502;2022-08-21T15:46:14;23.60;99.90
58261;DHT22;44058;52.898;6.502;2022-08-21T15:48:41;23.60;99.90
58261;DHT22;44058;52.898;6.502;2022-08-21T15:51:09;23.70;99.90
58261;DHT22;44058;52.898;6.502;2022-08-21T15:53:35;23.70;99.90
58261;DHT22;44058;52.898;6.502;2022-08-21T15:56:04;23.60;99.90
58261;DHT22;44058;52.898;6.502;2022-08-21T15:58:31;23.60;99.90
58261;DHT22;44058;52.898;6.502;2022-08-21T16:00:59;23.60;99.90
58261;DHT22;44058;52.898;6.502;2022-08-21T16:03:26;23.60;99.90
58261;DHT22;44058;52.898;6.502;2022-08-21T16:05:52;23.50;99.90
58261;DHT22;44058;52.898;6.502;2022-08-21T16:08:19;23.40;99.90
58261;DHT22;44058;52.898;6.502;2022-08-21T16:10:45;23.20;99.90
58261;DHT22;44058;52.898;6.502;2022-08-21T16:13:20;23.10;99.90
58261;DHT22;44058;52.898;6.502;2022-08-21T16:15:48;23.10;99.90
58261;DHT22;44058;52.898;6.502;2022-08-21T16:18:14;23.00;99.90
58261;DHT22;44058;52.898;6.502;2022-08-21T16:20:45;22.90;99.90
58261;DHT22;44058;52.898;6.502;2022-08-21T16:23:11;22.80;99.90
58261;DHT22;44058;52.898;6.502;2022-08-21T16:25:38;22.80;99.90
58261;DHT22;44058;52.898;6.502;2022-08-21T16:28:07;22.70;99.90
58261;DHT22;44058;52.898;6.502;2022-08-21T16:30:36;22.70;99.90
58261;DHT22;44058;52.898;6.502;2022-08-21T16:33:03;22.60;99.90
58261;DHT22;44058;52.898;6.502;2022-08-21T16:35:29;22.50;99.90
58261;DHT22;44058;52.898;6.502;2022-08-21T16:37:56;22.40;99.90
58261;DHT22;44058;52.898;6.502;2022-08-21T16:40:22;22.40;99.90
58261;DHT22;44058;52.898;6.502;2022-08-21T16:42:48;22.40;99.90
58261;DHT22;44058;52.898;6.502;2022-08-21T16:45:16;22.40;99.90
58261;DHT22;44058;52.898;6.502;2022-08-21T16:47:42;22.30;99.90